sensor_id;sensor_type;location;lat;lon;timestamp;P1;durP1;ratioP1;P2;durP2;ratioP2
21416;SDS011;10869;52.238;10.716;2024-02-21T00:00:09;33.00;;;9.33;;
21416;SDS011;10869;52.238;10.716;2024-02-21T00:02:36;32.40;;;9.67;;
21416;SDS011;10869;52.238;10.716;2024-02-21T00:05:02;26.33;;;9.03;;
21416;SDS011;10869;52.238;10.716;2024-02-21T00:07:28;27.77;;;9.60;;
21416;SDS011;10869;52.238;10.716;2024-02-21T00:09:54;30.53;;;9.70;;
21416;SDS011;10869;52.238;10.716;2024-02-21T00:12:20;33.23;;;9.27;;
21416;SDS011;10869;52.238;10.716;2024-02-21T00:14:45;28.97;;;9.20;;
21416;SDS011;10869;52.238;10.716;2024-02-21T00:17:11;31.07;;;9.23;;
21416;SDS011;10869;52.238;10.716;2024-02-21T00:19:37;31.53;;;9.50;;
21416;SDS011;10869;52.238;10.716;2024-02-21T00:22:03;25.33;;;8.10;;
21416;SDS011;10869;52.238;10.716;2024-02-21T00:24:29;30.83;;;8.63;;
21416;SDS011;10869;52.238;10.716;2024-02-21T00:26:55;31.93;;;9.43;;
21416;SDS011;10869;52.238;10.716;2024-02-21T00:29:21;32.70;;;9.00;;
21416;SDS011;10869;52.238;10.716;2024-02-21T00:31:47;34.70;;;8.50;;
21416;SDS011;10869;52.238;10.716;2024-02-21T00:34:14;28.37;;;9.97;;
21416;SDS011;10869;52.238;10.716;2024-02-21T00:36:40;29.57;;;8.87;;
21416;SDS011;10869;52.238;10.716;2024-02-21T00:39:05;26.27;;;8.83;;
21416;SDS011;10869;52.238;10.716;2024-02-21T00:41:31;32.13;;;11.30;;
21416;SDS011;10869;52.238;10.716;2024-02-21T00:43:58;38.33;;;9.90;;
21416;SDS011;10869;52.238;10.716;2024-02-21T00:46:23;31.43;;;10.93;;
21416;SDS011;10869;52.238;10.716;2024-02-21T00:48:49;36.90;;;11.03;;
21416;SDS011;10869;52.238;10.716;2024-02-21T00:51:16;31.07;;;11.40;;
21416;SDS011;10869;52.238;10.716;2024-02-21T00:56:38;34.17;;;10.47;;
21416;SDS011;10869;52.238;10.716;2024-02-21T00:59:04;36.27;;;11.43;;
21416;SDS011;10869;52.238;10.716;2024-02-21T01:01:30;28.67;;;10.83;;
21416;SDS011;10869;52.238;10.716;2024-02-21T01:04:05;40.27;;;12.43;;
21416;SDS011;10869;52.238;10.716;2024-02-21T01:06:33;33.53;;;11.63;;
21416;SDS011;10869;52.238;10.716;2024-02-21T01:08:59;33.57;;;10.90;;
21416;SDS011;10869;52.238;10.716;2024-02-21T01:11:27;34.97;;;12.33;;
21416;SDS011;10869;52.238;10.716;2024-02-21T01:14:19;42.87;;;11.87;;
21416;SDS011;10869;52.238;10.716;2024-02-21T01:16:44;27.23;;;11.30;;
21416;SDS011;10869;52.238;10.716;2024-02-21T01:19:10;32.03;;;11.43;;
21416;SDS011;10869;52.238;10.716;2024-02-21T01:21:39;40.83;;;12.53;;
21416;SDS011;10869;52.238;10.716;2024-02-21T01:24:10;30.73;;;10.43;;
21416;SDS011;10869;52.238;10.716;2024-02-21T01:26:40;34.93;;;10.60;;
21416;SDS011;10869;52.238;10.716;2024-02-21T01:31:58;33.50;;;12.03;;
21416;SDS011;10869;52.238;10.716;2024-02-21T01:34:27;39.83;;;13.10;;
21416;SDS011;10869;52.238;10.716;2024-02-21T01:43:46;33.90;;;12.40;;
21416;SDS011;10869;52.238;10.716;2024-02-21T01:46:12;27.20;;;12.17;;
21416;SDS011;10869;52.238;10.716;2024-02-21T01:48:38;38.20;;;12.30;;
21416;SDS011;10869;52.238;10.716;2024-02-21T01:51:13;33.10;;;13.73;;
21416;SDS011;10869;52.238;10.716;2024-02-21T01:54:07;33.50;;;13.83;;
21416;SDS011;10869;52.238;10.716;2024-02-21T01:56:34;39.90;;;13.97;;
21416;SDS011;10869;52.238;10.716;2024-02-21T01:59:07;30.57;;;13.97;;
21416;SDS011;10869;52.238;10.716;2024-02-21T02:01:43;31.07;;;12.87;;
21416;SDS011;10869;52.238;10.716;2024-02-21T02:04:15;35.97;;;14.33;;
21416;SDS011;10869;52.238;10.716;2024-02-21T02:13:32;33.53;;;16.20;;
21416;SDS011;10869;52.238;10.716;2024-02-21T02:15:58;33.30;;;15.87;;
21416;SDS011;10869;52.238;10.716;2024-02-21T02:18:24;35.87;;;16.87;;
21416;SDS011;10869;52.238;10.716;2024-02-21T02:20:50;34.53;;;15.67;;
21416;SDS011;10869;52.238;10.716;2024-02-21T02:23:41;33.07;;;16.33;;
21416;SDS011;10869;52.238;10.716;2024-02-21T02:26:07;32.27;;;15.93;;
21416;SDS011;10869;52.238;10.716;2024-02-21T02:28:42;33.80;;;16.87;;
21416;SDS011;10869;52.238;10.716;2024-02-21T02:31:45;36.30;;;14.90;;
21416;SDS011;10869;52.238;10.716;2024-02-21T02:34:12;37.13;;;16.30;;
21416;SDS011;10869;52.238;10.716;2024-02-21T02:36:37;41.10;;;16.40;;
21416;SDS011;10869;52.238;10.716;2024-02-21T02:41:51;34.33;;;16.80;;
21416;SDS011;10869;52.238;10.716;2024-02-21T02:44:17;35.20;;;15.50;;
21416;SDS011;10869;52.238;10.716;2024-02-21T02:46:42;39.00;;;16.63;;
21416;SDS011;10869;52.238;10.716;2024-02-21T02:49:08;40.63;;;18.00;;
21416;SDS011;10869;52.238;10.716;2024-02-21T02:51:34;30.03;;;16.43;;
21416;SDS011;10869;52.238;10.716;2024-02-21T02:54:02;37.43;;;18.33;;
21416;SDS011;10869;52.238;10.716;2024-02-21T02:56:30;42.97;;;19.30;;
21416;SDS011;10869;52.238;10.716;2024-02-21T02:59:05;40.77;;;17.30;;
21416;SDS011;10869;52.238;10.716;2024-02-21T03:01:33;34.90;;;17.43;;
21416;SDS011;10869;52.238;10.716;2024-02-21T03:04:00;42.47;;;18.00;;
21416;SDS011;10869;52.238;10.716;2024-02-21T03:06:26;35.13;;;17.80;;
21416;SDS011;10869;52.238;10.716;2024-02-21T03:08:52;39.53;;;18.40;;
21416;SDS011;10869;52.238;10.716;2024-02-21T03:11:19;44.73;;;19.70;;
21416;SDS011;10869;52.238;10.716;2024-02-21T03:13:46;34.13;;;18.27;;
21416;SDS011;10869;52.238;10.716;2024-02-21T03:16:12;39.33;;;18.50;;
21416;SDS011;10869;52.238;10.716;2024-02-21T03:18:37;33.90;;;17.10;;
21416;SDS011;10869;52.238;10.716;2024-02-21T03:21:03;41.70;;;16.53;;
21416;SDS011;10869;52.238;10.716;2024-02-21T03:23:30;33.33;;;18.00;;
21416;SDS011;10869;52.238;10.716;2024-02-21T03:25:56;40.37;;;18.07;;
21416;SDS011;10869;52.238;10.716;2024-02-21T03:28:21;33.73;;;17.97;;
21416;SDS011;10869;52.238;10.716;2024-02-21T03:30:47;37.33;;;17.60;;
21416;SDS011;10869;52.238;10.716;2024-02-21T03:33:13;30.47;;;17.73;;
21416;SDS011;10869;52.238;10.716;2024-02-21T03:35:39;36.80;;;17.53;;
21416;SDS011;10869;52.238;10.716;2024-02-21T03:38:04;40.43;;;18.03;;
21416;SDS011;10869;52.238;10.716;2024-02-21T03:40:30;34.17;;;16.50;;
21416;SDS011;10869;52.238;10.716;2024-02-21T03:42:56;35.03;;;17.77;;
21416;SDS011;10869;52.238;10.716;2024-02-21T03:45:22;36.03;;;16.40;;
21416;SDS011;10869;52.238;10.716;2024-02-21T03:47:47;32.33;;;18.13;;
21416;SDS011;10869;52.238;10.716;2024-02-21T03:50:13;34.43;;;17.27;;
21416;SDS011;10869;52.238;10.716;2024-02-21T03:52:39;34.50;;;17.77;;
21416;SDS011;10869;52.238;10.716;2024-02-21T03:55:05;35.67;;;17.57;;
21416;SDS011;10869;52.238;10.716;2024-02-21T03:57:32;35.17;;;17.80;;
21416;SDS011;10869;52.238;10.716;2024-02-21T03:59:58;41.53;;;18.13;;
21416;SDS011;10869;52.238;10.716;2024-02-21T04:02:24;36.63;;;17.87;;
21416;SDS011;10869;52.238;10.716;2024-02-21T04:04:49;37.40;;;18.37;;
21416;SDS011;10869;52.238;10.716;2024-02-21T04:07:15;37.80;;;19.00;;
21416;SDS011;10869;52.238;10.716;2024-02-21T04:09:44;34.20;;;16.30;;
21416;SDS011;10869;52.238;10.716;2024-02-21T04:12:10;34.93;;;17.33;;
21416;SDS011;10869;52.238;10.716;2024-02-21T04:14:36;37.93;;;18.80;;
21416;SDS011;10869;52.238;10.716;2024-02-21T04:17:05;34.67;;;17.50;;
21416;SDS011;10869;52.238;10.716;2024-02-21T04:19:35;36.10;;;18.10;;
21416;SDS011;10869;52.238;10.716;2024-02-21T04:22:01;36.83;;;17.60;;
21416;SDS011;10869;52.238;10.716;2024-02-21T04:24:27;37.37;;;18.33;;
21416;SDS011;10869;52.238;10.716;2024-02-21T04:30:15;39.40;;;16.20;;
21416;SDS011;10869;52.238;10.716;2024-02-21T04:32:44;35.07;;;15.83;;
21416;SDS011;10869;52.238;10.716;2024-02-21T04:35:10;31.77;;;16.37;;
21416;SDS011;10869;52.238;10.716;2024-02-21T04:37:35;36.50;;;17.43;;
21416;SDS011;10869;52.238;10.716;2024-02-21T04:40:01;35.73;;;16.83;;
21416;SDS011;10869;52.238;10.716;2024-02-21T04:42:27;28.33;;;16.53;;
21416;SDS011;10869;52.238;10.716;2024-02-21T04:44:53;28.57;;;15.20;;
21416;SDS011;10869;52.238;10.716;2024-02-21T04:47:22;30.00;;;16.53;;
21416;SDS011;10869;52.238;10.716;2024-02-21T04:49:52;31.43;;;18.33;;
21416;SDS011;10869;52.238;10.716;2024-02-21T04:52:18;31.40;;;18.73;;
21416;SDS011;10869;52.238;10.716;2024-02-21T04:54:44;32.23;;;15.80;;
21416;SDS011;10869;52.238;10.716;2024-02-21T04:57:10;32.93;;;15.80;;
21416;SDS011;10869;52.238;10.716;2024-02-21T04:59:36;31.60;;;15.20;;
21416;SDS011;10869;52.238;10.716;2024-02-21T05:02:02;33.47;;;15.60;;
21416;SDS011;10869;52.238;10.716;2024-02-21T05:04:28;29.60;;;16.00;;
21416;SDS011;10869;52.238;10.716;2024-02-21T05:06:54;33.43;;;16.07;;
21416;SDS011;10869;52.238;10.716;2024-02-21T05:09:20;31.93;;;15.00;;
21416;SDS011;10869;52.238;10.716;2024-02-21T05:11:46;31.97;;;15.23;;
21416;SDS011;10869;52.238;10.716;2024-02-21T05:14:12;29.77;;;15.73;;
21416;SDS011;10869;52.238;10.716;2024-02-21T05:16:40;25.77;;;14.83;;
21416;SDS011;10869;52.238;10.716;2024-02-21T05:19:06;31.40;;;17.50;;
21416;SDS011;10869;52.238;10.716;2024-02-21T05:21:35;29.70;;;15.97;;
21416;SDS011;10869;52.238;10.716;2024-02-21T05:24:01;34.23;;;18.23;;
21416;SDS011;10869;52.238;10.716;2024-02-21T05:26:27;39.73;;;21.43;;
21416;SDS011;10869;52.238;10.716;2024-02-21T05:28:56;32.00;;;16.10;;
21416;SDS011;10869;52.238;10.716;2024-02-21T05:31:24;31.27;;;15.80;;
21416;SDS011;10869;52.238;10.716;2024-02-21T05:33:50;31.30;;;15.60;;
21416;SDS011;10869;52.238;10.716;2024-02-21T05:36:16;31.20;;;17.50;;
21416;SDS011;10869;52.238;10.716;2024-02-21T05:38:42;31.03;;;16.17;;
21416;SDS011;10869;52.238;10.716;2024-02-21T05:41:08;36.47;;;18.57;;
21416;SDS011;10869;52.238;10.716;2024-02-21T05:43:34;33.50;;;17.93;;
21416;SDS011;10869;52.238;10.716;2024-02-21T05:45:59;32.63;;;18.07;;
21416;SDS011;10869;52.238;10.716;2024-02-21T05:48:28;30.67;;;16.63;;
21416;SDS011;10869;52.238;10.716;2024-02-21T05:50:54;37.00;;;19.00;;
21416;SDS011;10869;52.238;10.716;2024-02-21T05:53:26;34.53;;;15.63;;
21416;SDS011;10869;52.238;10.716;2024-02-21T05:55:52;29.23;;;15.57;;
21416;SDS011;10869;52.238;10.716;2024-02-21T05:58:17;26.67;;;14.90;;
21416;SDS011;10869;52.238;10.716;2024-02-21T06:00:43;28.63;;;15.67;;
21416;SDS011;10869;52.238;10.716;2024-02-21T06:03:09;24.77;;;14.43;;
21416;SDS011;10869;52.238;10.716;2024-02-21T06:05:37;27.87;;;14.43;;
21416;SDS011;10869;52.238;10.716;2024-02-21T06:08:03;31.50;;;16.70;;
21416;SDS011;10869;52.238;10.716;2024-02-21T06:10:29;31.83;;;17.10;;
21416;SDS011;10869;52.238;10.716;2024-02-21T06:12:55;32.00;;;15.73;;
21416;SDS011;10869;52.238;10.716;2024-02-21T06:15:21;32.07;;;16.67;;
21416;SDS011;10869;52.238;10.716;2024-02-21T06:17:47;33.43;;;16.07;;
21416;SDS011;10869;52.238;10.716;2024-02-21T06:20:12;26.03;;;16.07;;
21416;SDS011;10869;52.238;10.716;2024-02-21T06:22:38;34.00;;;16.70;;
21416;SDS011;10869;52.238;10.716;2024-02-21T06:25:04;29.30;;;17.67;;
21416;SDS011;10869;52.238;10.716;2024-02-21T06:27:37;31.87;;;15.53;;
21416;SDS011;10869;52.238;10.716;2024-02-21T06:30:40;31.07;;;15.73;;
21416;SDS011;10869;52.238;10.716;2024-02-21T06:33:11;25.97;;;14.60;;
21416;SDS011;10869;52.238;10.716;2024-02-21T06:35:37;32.73;;;15.70;;
21416;SDS011;10869;52.238;10.716;2024-02-21T06:44:55;30.33;;;14.97;;
21416;SDS011;10869;52.238;10.716;2024-02-21T06:47:22;35.30;;;15.03;;
21416;SDS011;10869;52.238;10.716;2024-02-21T06:53:10;21.33;;;13.13;;
21416;SDS011;10869;52.238;10.716;2024-02-21T06:58:58;26.70;;;14.00;;
21416;SDS011;10869;52.238;10.716;2024-02-21T07:01:24;26.50;;;12.67;;
21416;SDS011;10869;52.238;10.716;2024-02-21T07:07:11;29.43;;;14.37;;
21416;SDS011;10869;52.238;10.716;2024-02-21T07:09:38;30.53;;;16.17;;
21416;SDS011;10869;52.238;10.716;2024-02-21T07:12:04;27.93;;;14.27;;
21416;SDS011;10869;52.238;10.716;2024-02-21T07:17:51;28.53;;;13.87;;
21416;SDS011;10869;52.238;10.716;2024-02-21T07:20:17;34.77;;;14.80;;
21416;SDS011;10869;52.238;10.716;2024-02-21T07:22:43;29.27;;;13.93;;
21416;SDS011;10869;52.238;10.716;2024-02-21T07:28:31;33.13;;;15.37;;
21416;SDS011;10869;52.238;10.716;2024-02-21T07:30:58;23.87;;;15.10;;
21416;SDS011;10869;52.238;10.716;2024-02-21T07:33:24;23.97;;;14.27;;
21416;SDS011;10869;52.238;10.716;2024-02-21T07:35:50;26.30;;;13.87;;
21416;SDS011;10869;52.238;10.716;2024-02-21T07:38:16;27.07;;;14.70;;
21416;SDS011;10869;52.238;10.716;2024-02-21T07:40:46;29.10;;;14.33;;
21416;SDS011;10869;52.238;10.716;2024-02-21T07:46:34;25.47;;;13.47;;
21416;SDS011;10869;52.238;10.716;2024-02-21T07:49:00;26.47;;;12.67;;
21416;SDS011;10869;52.238;10.716;2024-02-21T07:51:27;26.20;;;13.03;;
21416;SDS011;10869;52.238;10.716;2024-02-21T07:53:53;25.17;;;12.37;;
21416;SDS011;10869;52.238;10.716;2024-02-21T07:56:22;28.73;;;12.90;;
21416;SDS011;10869;52.238;10.716;2024-02-21T08:02:10;32.27;;;15.33;;
21416;SDS011;10869;52.238;10.716;2024-02-21T08:05:04;23.27;;;11.97;;
21416;SDS011;10869;52.238;10.716;2024-02-21T08:13:30;26.30;;;11.53;;
21416;SDS011;10869;52.238;10.716;2024-02-21T08:15:56;25.47;;;13.17;;
21416;SDS011;10869;52.238;10.716;2024-02-21T08:18:28;27.90;;;12.07;;
21416;SDS011;10869;52.238;10.716;2024-02-21T08:20:54;25.67;;;12.13;;
21416;SDS011;10869;52.238;10.716;2024-02-21T08:23:19;24.17;;;12.60;;
21416;SDS011;10869;52.238;10.716;2024-02-21T08:25:48;27.87;;;12.33;;
21416;SDS011;10869;52.238;10.716;2024-02-21T08:28:14;23.57;;;11.73;;
21416;SDS011;10869;52.238;10.716;2024-02-21T08:30:40;28.17;;;12.63;;
21416;SDS011;10869;52.238;10.716;2024-02-21T08:33:12;28.93;;;12.47;;
21416;SDS011;10869;52.238;10.716;2024-02-21T08:35:39;26.03;;;11.90;;
21416;SDS011;10869;52.238;10.716;2024-02-21T08:38:05;26.37;;;11.13;;
21416;SDS011;10869;52.238;10.716;2024-02-21T08:40:31;23.73;;;11.80;;
21416;SDS011;10869;52.238;10.716;2024-02-21T08:43:00;38.20;;;14.50;;
21416;SDS011;10869;52.238;10.716;2024-02-21T08:45:26;23.93;;;11.87;;
21416;SDS011;10869;52.238;10.716;2024-02-21T08:47:53;26.00;;;11.13;;
21416;SDS011;10869;52.238;10.716;2024-02-21T08:50:18;22.00;;;10.93;;
21416;SDS011;10869;52.238;10.716;2024-02-21T08:52:44;27.77;;;11.43;;
21416;SDS011;10869;52.238;10.716;2024-02-21T08:58:32;23.80;;;10.97;;
21416;SDS011;10869;52.238;10.716;2024-02-21T09:00:58;21.07;;;10.90;;
21416;SDS011;10869;52.238;10.716;2024-02-21T09:03:24;26.77;;;10.93;;
21416;SDS011;10869;52.238;10.716;2024-02-21T09:05:50;16.60;;;9.77;;
21416;SDS011;10869;52.238;10.716;2024-02-21T09:08:16;20.47;;;10.40;;
21416;SDS011;10869;52.238;10.716;2024-02-21T09:10:41;30.10;;;12.40;;
21416;SDS011;10869;52.238;10.716;2024-02-21T09:13:07;25.17;;;10.83;;
21416;SDS011;10869;52.238;10.716;2024-02-21T09:15:34;15.77;;;9.63;;
21416;SDS011;10869;52.238;10.716;2024-02-21T09:18:00;22.93;;;10.43;;
21416;SDS011;10869;52.238;10.716;2024-02-21T09:23:48;21.63;;;10.30;;
21416;SDS011;10869;52.238;10.716;2024-02-21T09:29:35;21.43;;;9.80;;
21416;SDS011;10869;52.238;10.716;2024-02-21T09:32:01;19.23;;;9.37;;
21416;SDS011;10869;52.238;10.716;2024-02-21T09:34:28;24.73;;;9.47;;
21416;SDS011;10869;52.238;10.716;2024-02-21T09:40:15;18.90;;;8.13;;
21416;SDS011;10869;52.238;10.716;2024-02-21T09:46:04;15.23;;;7.60;;
21416;SDS011;10869;52.238;10.716;2024-02-21T09:55:05;15.87;;;5.77;;
21416;SDS011;10869;52.238;10.716;2024-02-21T09:57:36;15.30;;;5.90;;
21416;SDS011;10869;52.238;10.716;2024-02-21T10:00:03;12.87;;;5.37;;
21416;SDS011;10869;52.238;10.716;2024-02-21T10:02:32;19.03;;;6.73;;
21416;SDS011;10869;52.238;10.716;2024-02-21T10:05:18;15.33;;;5.97;;
21416;SDS011;10869;52.238;10.716;2024-02-21T10:16:10;17.70;;;6.93;;
21416;SDS011;10869;52.238;10.716;2024-02-21T10:18:54;19.60;;;7.00;;
21416;SDS011;10869;52.238;10.716;2024-02-21T10:26:36;18.03;;;6.87;;
21416;SDS011;10869;52.238;10.716;2024-02-21T10:29:04;15.43;;;6.07;;
21416;SDS011;10869;52.238;10.716;2024-02-21T10:31:30;18.23;;;6.30;;
21416;SDS011;10869;52.238;10.716;2024-02-21T10:33:58;12.30;;;6.60;;
21416;SDS011;10869;52.238;10.716;2024-02-21T10:39:41;12.93;;;5.30;;
21416;SDS011;10869;52.238;10.716;2024-02-21T10:47:39;16.40;;;6.77;;
21416;SDS011;10869;52.238;10.716;2024-02-21T10:50:07;17.33;;;6.27;;
21416;SDS011;10869;52.238;10.716;2024-02-21T11:04:05;12.23;;;4.80;;
21416;SDS011;10869;52.238;10.716;2024-02-21T11:06:40;16.67;;;5.70;;
21416;SDS011;10869;52.238;10.716;2024-02-21T11:09:10;12.47;;;4.87;;
21416;SDS011;10869;52.238;10.716;2024-02-21T11:16:45;15.87;;;5.70;;
21416;SDS011;10869;52.238;10.716;2024-02-21T11:19:21;15.43;;;5.70;;
21416;SDS011;10869;52.238;10.716;2024-02-21T11:21:55;10.70;;;5.13;;
21416;SDS011;10869;52.238;10.716;2024-02-21T11:27:50;13.00;;;4.83;;
21416;SDS011;10869;52.238;10.716;2024-02-21T11:33:30;12.43;;;4.57;;
21416;SDS011;10869;52.238;10.716;2024-02-21T11:36:05;16.53;;;4.93;;
21416;SDS011;10869;52.238;10.716;2024-02-21T11:38:43;14.50;;;5.33;;
21416;SDS011;10869;52.238;10.716;2024-02-21T11:54:11;16.37;;;5.33;;
21416;SDS011;10869;52.238;10.716;2024-02-21T11:56:50;10.67;;;5.13;;
21416;SDS011;10869;52.238;10.716;2024-02-21T11:59:25;13.53;;;5.47;;
21416;SDS011;10869;52.238;10.716;2024-02-21T12:01:52;13.63;;;5.87;;
21416;SDS011;10869;52.238;10.716;2024-02-21T12:04:19;14.93;;;5.23;;
21416;SDS011;10869;52.238;10.716;2024-02-21T12:06:45;17.17;;;5.70;;
21416;SDS011;10869;52.238;10.716;2024-02-21T12:12:41;12.77;;;5.00;;
21416;SDS011;10869;52.238;10.716;2024-02-21T12:15:23;12.03;;;5.13;;
21416;SDS011;10869;52.238;10.716;2024-02-21T12:17:54;12.53;;;5.77;;
21416;SDS011;10869;52.238;10.716;2024-02-21T12:20:30;12.87;;;5.07;;
21416;SDS011;10869;52.238;10.716;2024-02-21T12:23:00;13.33;;;5.77;;
21416;SDS011;10869;52.238;10.716;2024-02-21T12:26:03;10.60;;;5.17;;
21416;SDS011;10869;52.238;10.716;2024-02-21T12:31:55;14.47;;;5.00;;
21416;SDS011;10869;52.238;10.716;2024-02-21T12:34:25;15.97;;;5.00;;
21416;SDS011;10869;52.238;10.716;2024-02-21T12:40:14;13.87;;;4.40;;
21416;SDS011;10869;52.238;10.716;2024-02-21T12:42:39;17.47;;;6.13;;
21416;SDS011;10869;52.238;10.716;2024-02-21T12:45:10;14.83;;;5.50;;
21416;SDS011;10869;52.238;10.716;2024-02-21T12:47:37;16.63;;;5.90;;
21416;SDS011;10869;52.238;10.716;2024-02-21T12:50:05;12.80;;;5.00;;
21416;SDS011;10869;52.238;10.716;2024-02-21T12:52:31;13.27;;;5.50;;
21416;SDS011;10869;52.238;10.716;2024-02-21T12:54:57;13.90;;;4.70;;
21416;SDS011;10869;52.238;10.716;2024-02-21T12:57:23;13.40;;;4.87;;
21416;SDS011;10869;52.238;10.716;2024-02-21T12:59:53;11.90;;;4.70;;
21416;SDS011;10869;52.238;10.716;2024-02-21T13:02:38;11.97;;;5.13;;
21416;SDS011;10869;52.238;10.716;2024-02-21T14:54:02;12.80;;;3.57;;
21416;SDS011;10869;52.238;10.716;2024-02-21T14:59:51;10.57;;;3.20;;
21416;SDS011;10869;52.238;10.716;2024-02-21T15:02:22;12.10;;;3.70;;
21416;SDS011;10869;52.238;10.716;2024-02-21T15:04:50;11.13;;;3.70;;
21416;SDS011;10869;52.238;10.716;2024-02-21T15:07:17;12.00;;;3.00;;
21416;SDS011;10869;52.238;10.716;2024-02-21T15:09:44;10.53;;;3.83;;
21416;SDS011;10869;52.238;10.716;2024-02-21T15:12:10;10.47;;;3.40;;
21416;SDS011;10869;52.238;10.716;2024-02-21T15:14:39;13.40;;;3.10;;
21416;SDS011;10869;52.238;10.716;2024-02-21T15:20:27;9.63;;;2.87;;
21416;SDS011;10869;52.238;10.716;2024-02-21T15:26:17;11.17;;;3.27;;
21416;SDS011;10869;52.238;10.716;2024-02-21T15:32:06;10.17;;;2.57;;
21416;SDS011;10869;52.238;10.716;2024-02-21T15:37:55;5.57;;;2.57;;
21416;SDS011;10869;52.238;10.716;2024-02-21T15:43:57;8.83;;;2.87;;
21416;SDS011;10869;52.238;10.716;2024-02-21T15:49:50;10.17;;;2.37;;
21416;SDS011;10869;52.238;10.716;2024-02-21T15:52:16;8.37;;;2.33;;
21416;SDS011;10869;52.238;10.716;2024-02-21T16:00:16;13.90;;;3.17;;
21416;SDS011;10869;52.238;10.716;2024-02-21T16:11:15;7.77;;;2.33;;
21416;SDS011;10869;52.238;10.716;2024-02-21T16:20:17;16.07;;;2.67;;
21416;SDS011;10869;52.238;10.716;2024-02-21T16:22:43;8.70;;;2.70;;
21416;SDS011;10869;52.238;10.716;2024-02-21T16:25:13;10.80;;;3.37;;
21416;SDS011;10869;52.238;10.716;2024-02-21T16:27:43;7.67;;;2.70;;
21416;SDS011;10869;52.238;10.716;2024-02-21T16:30:09;8.53;;;2.93;;
21416;SDS011;10869;52.238;10.716;2024-02-21T16:32:35;8.60;;;3.13;;
21416;SDS011;10869;52.238;10.716;2024-02-21T16:35:04;11.80;;;3.40;;
21416;SDS011;10869;52.238;10.716;2024-02-21T16:37:30;9.97;;;2.23;;
21416;SDS011;10869;52.238;10.716;2024-02-21T16:39:56;9.07;;;2.77;;
21416;SDS011;10869;52.238;10.716;2024-02-21T16:42:22;12.10;;;2.80;;
21416;SDS011;10869;52.238;10.716;2024-02-21T16:44:48;10.10;;;2.77;;
21416;SDS011;10869;52.238;10.716;2024-02-21T16:47:16;9.73;;;2.87;;
21416;SDS011;10869;52.238;10.716;2024-02-21T16:49:42;10.57;;;2.80;;
21416;SDS011;10869;52.238;10.716;2024-02-21T16:52:08;10.60;;;2.57;;
21416;SDS011;10869;52.238;10.716;2024-02-21T16:54:42;7.80;;;2.63;;
21416;SDS011;10869;52.238;10.716;2024-02-21T16:57:10;10.13;;;2.90;;
21416;SDS011;10869;52.238;10.716;2024-02-21T16:59:39;12.30;;;3.30;;
21416;SDS011;10869;52.238;10.716;2024-02-21T17:02:05;10.10;;;3.30;;
21416;SDS011;10869;52.238;10.716;2024-02-21T17:07:53;21.10;;;9.33;;
21416;SDS011;10869;52.238;10.716;2024-02-21T17:13:41;7.97;;;2.70;;
21416;SDS011;10869;52.238;10.716;2024-02-21T17:19:53;13.77;;;5.70;;
21416;SDS011;10869;52.238;10.716;2024-02-21T17:26:23;13.13;;;6.73;;
21416;SDS011;10869;52.238;10.716;2024-02-21T17:28:52;17.67;;;7.77;;
21416;SDS011;10869;52.238;10.716;2024-02-21T17:31:18;15.07;;;8.73;;
21416;SDS011;10869;52.238;10.716;2024-02-21T17:37:06;15.97;;;9.33;;
21416;SDS011;10869;52.238;10.716;2024-02-21T17:39:31;20.40;;;8.67;;
21416;SDS011;10869;52.238;10.716;2024-02-21T17:45:19;14.30;;;5.87;;
21416;SDS011;10869;52.238;10.716;2024-02-21T17:47:45;13.47;;;5.47;;
21416;SDS011;10869;52.238;10.716;2024-02-21T17:50:12;14.13;;;5.40;;
21416;SDS011;10869;52.238;10.716;2024-02-21T17:52:37;12.47;;;4.70;;
21416;SDS011;10869;52.238;10.716;2024-02-21T17:55:04;18.47;;;4.73;;
21416;SDS011;10869;52.238;10.716;2024-02-21T17:57:36;12.10;;;4.47;;
21416;SDS011;10869;52.238;10.716;2024-02-21T18:00:12;11.97;;;5.00;;
21416;SDS011;10869;52.238;10.716;2024-02-21T18:02:57;13.23;;;4.00;;
21416;SDS011;10869;52.238;10.716;2024-02-21T18:05:37;13.10;;;5.33;;
21416;SDS011;10869;52.238;10.716;2024-02-21T18:08:29;13.63;;;5.10;;
21416;SDS011;10869;52.238;10.716;2024-02-21T18:11:33;15.10;;;5.60;;
21416;SDS011;10869;52.238;10.716;2024-02-21T18:14:47;13.67;;;4.77;;
21416;SDS011;10869;52.238;10.716;2024-02-21T18:30:58;13.73;;;4.37;;
21416;SDS011;10869;52.238;10.716;2024-02-21T18:33:30;13.10;;;4.13;;
21416;SDS011;10869;52.238;10.716;2024-02-21T18:36:19;12.43;;;3.77;;
21416;SDS011;10869;52.238;10.716;2024-02-21T18:42:36;12.50;;;4.43;;
21416;SDS011;10869;52.238;10.716;2024-02-21T18:48:46;11.27;;;4.00;;
21416;SDS011;10869;52.238;10.716;2024-02-21T18:51:59;14.13;;;4.40;;
21416;SDS011;10869;52.238;10.716;2024-02-21T19:05:01;11.00;;;4.60;;
21416;SDS011;10869;52.238;10.716;2024-02-21T19:08:15;13.33;;;4.87;;
21416;SDS011;10869;52.238;10.716;2024-02-21T19:18:24;11.47;;;4.00;;
21416;SDS011;10869;52.238;10.716;2024-02-21T19:24:14;8.53;;;2.87;;
21416;SDS011;10869;52.238;10.716;2024-02-21T19:26:43;12.17;;;3.77;;
21416;SDS011;10869;52.238;10.716;2024-02-21T19:29:09;16.77;;;3.07;;
21416;SDS011;10869;52.238;10.716;2024-02-21T19:34:56;8.90;;;2.90;;
21416;SDS011;10869;52.238;10.716;2024-02-21T19:37:22;10.37;;;2.30;;
21416;SDS011;10869;52.238;10.716;2024-02-21T19:39:48;10.87;;;3.13;;
21416;SDS011;10869;52.238;10.716;2024-02-21T19:42:14;8.23;;;2.97;;
21416;SDS011;10869;52.238;10.716;2024-02-21T19:44:39;12.83;;;3.37;;
21416;SDS011;10869;52.238;10.716;2024-02-21T19:50:27;8.90;;;3.00;;
21416;SDS011;10869;52.238;10.716;2024-02-21T19:52:57;9.13;;;2.83;;
21416;SDS011;10869;52.238;10.716;2024-02-21T19:55:24;10.00;;;2.90;;
21416;SDS011;10869;52.238;10.716;2024-02-21T19:57:50;10.10;;;2.57;;
21416;SDS011;10869;52.238;10.716;2024-02-21T20:00:16;8.40;;;3.53;;
21416;SDS011;10869;52.238;10.716;2024-02-21T20:02:43;8.90;;;2.70;;
21416;SDS011;10869;52.238;10.716;2024-02-21T20:05:12;11.77;;;3.47;;
21416;SDS011;10869;52.238;10.716;2024-02-21T20:07:38;10.17;;;2.70;;
21416;SDS011;10869;52.238;10.716;2024-02-21T20:10:04;9.20;;;2.77;;
21416;SDS011;10869;52.238;10.716;2024-02-21T20:12:32;9.43;;;1.90;;
21416;SDS011;10869;52.238;10.716;2024-02-21T20:14:59;9.20;;;2.20;;
21416;SDS011;10869;52.238;10.716;2024-02-21T20:20:52;8.87;;;2.90;;
21416;SDS011;10869;52.238;10.716;2024-02-21T20:23:17;13.17;;;7.17;;
21416;SDS011;10869;52.238;10.716;2024-02-21T20:31:45;10.13;;;2.80;;
21416;SDS011;10869;52.238;10.716;2024-02-21T20:36:51;10.20;;;2.53;;
21416;SDS011;10869;52.238;10.716;2024-02-21T20:39:30;12.10;;;2.63;;
21416;SDS011;10869;52.238;10.716;2024-02-21T20:42:04;8.90;;;2.23;;
21416;SDS011;10869;52.238;10.716;2024-02-21T20:48:07;11.00;;;2.67;;
21416;SDS011;10869;52.238;10.716;2024-02-21T20:50:42;7.27;;;2.60;;
21416;SDS011;10869;52.238;10.716;2024-02-21T20:53:11;7.43;;;2.70;;
21416;SDS011;10869;52.238;10.716;2024-02-21T20:56:21;8.47;;;2.13;;
21416;SDS011;10869;52.238;10.716;2024-02-21T21:02:23;11.93;;;2.43;;